createdAt,value
2023-04-29T00:00:56.254Z,16.20
2023-04-29T00:02:59.174Z,16.20
2023-04-29T00:05:05.150Z,16.30
2023-04-29T00:07:09.108Z,16.40
2023-04-29T00:09:13.197Z,16.30
2023-04-29T00:11:16.234Z,16.10
2023-04-29T00:13:19.118Z,16.00
2023-04-29T00:15:22.039Z,16.00
2023-04-29T00:17:24.853Z,16.00
2023-04-29T00:19:28.624Z,16.00
2023-04-29T00:21:31.831Z,15.90
2023-04-29T00:23:34.664Z,16.00
2023-04-29T00:25:39.090Z,16.20
2023-04-29T00:27:41.991Z,16.30
2023-04-29T00:29:44.966Z,16.20
2023-04-29T00:31:47.745Z,16.30
2023-04-29T00:33:50.525Z,16.10
2023-04-29T00:35:53.271Z,16.20
2023-04-29T00:37:56.107Z,16.20
2023-04-29T00:39:59.103Z,16.10
2023-04-29T00:42:03.966Z,16.30
2023-04-29T00:44:07.696Z,16.40
2023-04-29T00:46:10.719Z,16.40
2023-04-29T00:48:15.163Z,16.40
2023-04-29T00:50:17.960Z,16.40
2023-04-29T00:52:20.897Z,16.30
2023-04-29T00:54:23.684Z,16.20
2023-04-29T00:56:27.172Z,16.20
2023-04-29T00:58:33.618Z,16.00
2023-04-29T01:00:37.092Z,15.70
2023-04-29T01:02:40.174Z,15.90
2023-04-29T01:04:49.633Z,15.90
2023-04-29T01:07:06.301Z,16.10
2023-04-29T01:09:24.965Z,16.10
2023-04-29T01:11:35.998Z,16.20
2023-04-29T01:13:45.167Z,16.30
2023-04-29T01:15:55.672Z,16.30
2023-04-29T01:18:04.505Z,16.10
2023-04-29T01:20:10.295Z,16.20
2023-04-29T01:22:14.441Z,16.20
2023-04-29T01:24:18.534Z,16.20
2023-04-29T01:26:21.297Z,16.30
2023-04-29T01:28:44.530Z,16.50
2023-04-29T01:30:54.353Z,16.60
2023-04-29T01:33:04.453Z,16.60
2023-04-29T01:35:19.179Z,16.50
2023-04-29T01:37:34.666Z,16.30
2023-04-29T01:39:47.306Z,16.20
2023-04-29T01:41:58.871Z,16.10
2023-04-29T01:44:04.737Z,16.20
2023-04-29T01:46:09.982Z,16.30
2023-04-29T01:48:13.080Z,16.30
2023-04-29T01:50:15.850Z,16.10
2023-04-29T01:52:18.647Z,16.10
2023-04-29T01:54:22.420Z,16.10
2023-04-29T01:56:26.640Z,16.20
2023-04-29T01:58:29.562Z,16.20
2023-04-29T02:00:32.359Z,16.00
2023-04-29T02:02:35.511Z,16.00
2023-04-29T02:04:38.375Z,15.80
2023-04-29T02:06:41.153Z,15.70
2023-04-29T02:08:43.968Z,15.70
2023-04-29T02:10:53.916Z,15.80
2023-04-29T02:12:57.943Z,15.80
2023-04-29T02:15:00.791Z,15.50
2023-04-29T02:17:03.528Z,15.60
2023-04-29T02:19:06.359Z,15.50
2023-04-29T02:21:09.380Z,15.60
2023-04-29T02:23:12.126Z,15.50
2023-04-29T02:25:15.009Z,15.30
2023-04-29T02:27:18.137Z,15.40
2023-04-29T02:29:22.227Z,15.40
2023-04-29T02:31:25.112Z,15.50
2023-04-29T02:33:28.095Z,15.30
2023-04-29T02:35:30.854Z,15.40
2023-04-29T02:37:33.680Z,15.40
2023-04-29T02:39:36.499Z,15.10
2023-04-29T02:41:39.230Z,15.30
2023-04-29T02:43:42.026Z,15.30
2023-04-29T02:45:46.379Z,15.20
2023-04-29T02:47:49.373Z,15.50
2023-04-29T02:49:52.517Z,15.20
2023-04-29T02:51:55.618Z,15.20
2023-04-29T02:53:58.630Z,15.20
2023-04-29T02:56:01.378Z,15.00
2023-04-29T02:58:04.639Z,15.00
2023-04-29T03:00:08.989Z,14.60
2023-04-29T03:02:13.100Z,14.80
2023-04-29T03:04:16.108Z,15.00
2023-04-29T03:06:18.918Z,15.10
2023-04-29T03:08:22.201Z,14.90
2023-04-29T03:10:25.193Z,15.00
2023-04-29T03:12:27.968Z,15.00
2023-04-29T03:14:30.691Z,14.80
2023-04-29T03:16:33.664Z,15.10
2023-04-29T03:18:37.752Z,15.00
2023-04-29T03:20:40.519Z,15.10
2023-04-29T03:22:43.298Z,15.20
2023-04-29T03:24:46.095Z,15.40
2023-04-29T03:26:48.841Z,15.30
2023-04-29T03:28:51.619Z,15.40
2023-04-29T03:30:54.510Z,15.50
2023-04-29T03:32:57.461Z,15.60
2023-04-29T03:35:01.946Z,15.30
2023-04-29T03:37:04.654Z,15.30
2023-04-29T03:39:07.479Z,15.60
2023-04-29T03:41:10.330Z,15.70
2023-04-29T03:43:14.006Z,15.60
2023-04-29T03:45:17.665Z,15.30
2023-04-29T03:47:20.376Z,15.40
2023-04-29T03:49:23.681Z,15.20
2023-04-29T03:51:28.090Z,14.80
2023-04-29T03:53:31.407Z,15.00
2023-04-29T03:55:34.139Z,15.20
2023-04-29T03:57:36.927Z,15.30
2023-04-29T03:59:40.105Z,15.20
2023-04-29T04:01:42.878Z,15.20
2023-04-29T04:03:45.858Z,15.00
2023-04-29T04:05:48.900Z,15.10
2023-04-29T04:07:53.048Z,15.20
2023-04-29T04:09:55.803Z,15.10
2023-04-29T04:11:58.859Z,14.90
2023-04-29T04:14:01.859Z,14.90
2023-04-29T04:16:04.922Z,14.60
2023-04-29T04:18:07.762Z,14.40
2023-04-29T04:20:11.486Z,14.40
2023-04-29T04:22:14.339Z,14.70
2023-04-29T04:24:18.414Z,14.60
2023-04-29T04:26:21.586Z,14.30
2023-04-29T04:28:24.348Z,14.30
2023-04-29T04:30:27.200Z,14.20
2023-04-29T04:32:29.966Z,14.10
2023-04-29T04:34:32.791Z,14.30
2023-04-29T04:36:35.577Z,13.80
2023-04-29T04:38:38.341Z,14.00
2023-04-29T04:40:43.824Z,14.10
2023-04-29T04:42:46.586Z,13.80
2023-04-29T04:44:49.327Z,13.80
2023-04-29T04:46:52.175Z,13.60
2023-04-29T04:48:54.898Z,13.60
2023-04-29T04:50:57.618Z,13.80
2023-04-29T04:53:00.924Z,13.80
2023-04-29T04:55:03.951Z,13.60
2023-04-29T04:57:08.097Z,13.80
2023-04-29T04:59:10.864Z,13.80
2023-04-29T05:01:13.628Z,14.00
2023-04-29T05:03:16.889Z,13.90
2023-04-29T05:05:19.957Z,13.50
2023-04-29T05:07:22.690Z,13.80
2023-04-29T05:09:26.855Z,13.80
2023-04-29T05:11:29.658Z,13.70
2023-04-29T05:13:34.312Z,13.80
2023-04-29T05:15:37.176Z,13.90
2023-04-29T05:17:39.945Z,13.80
2023-04-29T05:19:42.942Z,13.80
2023-04-29T05:21:45.672Z,13.90
2023-04-29T05:23:48.559Z,14.10
2023-04-29T05:25:51.264Z,13.80
2023-04-29T05:27:54.363Z,14.00
2023-04-29T05:29:58.863Z,14.00
2023-04-29T05:32:01.622Z,14.00
2023-04-29T05:34:04.377Z,13.90
2023-04-29T05:36:07.751Z,13.70
2023-04-29T05:38:10.884Z,13.90
2023-04-29T05:40:14.016Z,13.40
2023-04-29T05:42:16.697Z,13.80
2023-04-29T05:44:19.520Z,14.00
2023-04-29T05:46:23.841Z,14.40
2023-04-29T05:48:26.641Z,14.20
2023-04-29T05:50:29.374Z,14.40
2023-04-29T05:52:32.104Z,14.40
2023-04-29T05:54:35.310Z,14.20
2023-04-29T05:56:38.111Z,14.10
2023-04-29T05:58:41.107Z,14.10
2023-04-29T06:00:44.140Z,13.90
2023-04-29T06:02:58.095Z,13.80
2023-04-29T06:05:02.151Z,13.90
2023-04-29T06:07:05.587Z,13.80
2023-04-29T06:09:13.473Z,13.80
2023-04-29T06:11:19.273Z,13.60
2023-04-29T06:13:22.025Z,13.70
2023-04-29T06:15:24.850Z,13.80
2023-04-29T06:17:29.365Z,13.90
2023-04-29T06:19:33.966Z,14.20
2023-04-29T06:21:36.712Z,14.00
2023-04-29T06:23:39.569Z,14.20
2023-04-29T06:25:42.338Z,14.10
2023-04-29T06:27:45.077Z,13.80
2023-04-29T06:29:47.912Z,14.10
2023-04-29T06:31:50.789Z,14.00
2023-04-29T06:33:53.593Z,13.60
2023-04-29T06:35:57.742Z,13.80
2023-04-29T06:38:00.493Z,13.60
2023-04-29T06:40:03.403Z,13.10
2023-04-29T06:42:06.116Z,13.30
2023-04-29T06:44:08.848Z,13.20
2023-04-29T06:46:12.420Z,13.30
2023-04-29T06:48:15.310Z,13.70
2023-04-29T06:50:18.210Z,14.00
2023-04-29T06:52:22.277Z,13.90
2023-04-29T06:54:25.604Z,14.00
2023-04-29T06:56:28.498Z,14.00
2023-04-29T06:58:31.504Z,13.70
2023-04-29T07:00:34.272Z,13.50
2023-04-29T07:02:39.121Z,14.10
2023-04-29T07:04:42.130Z,14.10
2023-04-29T07:06:47.022Z,14.10
2023-04-29T07:08:52.849Z,14.00
2023-04-29T07:10:57.162Z,13.90
2023-04-29T07:13:03.302Z,13.60
2023-04-29T07:15:06.863Z,13.50
2023-04-29T07:17:10.942Z,13.40
2023-04-29T07:19:15.413Z,13.70
2023-04-29T07:21:18.189Z,13.80
2023-04-29T07:23:20.920Z,13.90
2023-04-29T07:25:25.102Z,14.00
2023-04-29T07:27:28.501Z,13.90
2023-04-29T07:29:31.353Z,13.60
2023-04-29T07:31:36.030Z,13.70
2023-04-29T07:33:41.034Z,14.00
2023-04-29T07:35:44.613Z,13.80
2023-04-29T07:37:48.240Z,13.90
2023-04-29T07:39:51.169Z,13.50
2023-04-29T07:41:55.186Z,13.70
2023-04-29T07:43:57.928Z,13.70
2023-04-29T07:46:00.708Z,14.00
2023-04-29T07:48:03.566Z,14.10
2023-04-29T07:50:07.318Z,14.20
2023-04-29T07:52:10.339Z,14.10
2023-04-29T07:54:13.149Z,13.70
2023-04-29T07:56:16.201Z,14.10
2023-04-29T07:58:20.348Z,14.10
2023-04-29T08:00:23.469Z,13.90
2023-04-29T08:02:26.392Z,14.10
2023-04-29T08:04:29.618Z,14.00
2023-04-29T08:06:33.173Z,14.10
2023-04-29T08:08:35.966Z,14.00
2023-04-29T08:10:40.969Z,14.00
2023-04-29T08:12:49.275Z,14.30
2023-04-29T08:14:53.619Z,14.30
2023-04-29T08:16:56.647Z,14.60
2023-04-29T08:19:11.893Z,14.40
2023-04-29T08:21:14.678Z,14.00
2023-04-29T08:23:17.510Z,14.20
2023-04-29T08:25:20.576Z,14.30
2023-04-29T08:27:23.402Z,14.50
2023-04-29T08:29:26.242Z,14.70
2023-04-29T08:31:30.707Z,14.40
2023-04-29T08:33:33.632Z,14.40
2023-04-29T08:35:38.716Z,14.20
2023-04-29T08:37:43.018Z,14.10
2023-04-29T08:39:47.685Z,14.20
2023-04-29T08:41:52.209Z,14.30
2023-04-29T08:43:54.988Z,14.50
2023-04-29T08:46:00.400Z,14.40
2023-04-29T08:48:06.185Z,14.40
2023-04-29T08:50:10.955Z,14.20
2023-04-29T08:52:14.030Z,14.40
2023-04-29T08:54:16.955Z,14.30
2023-04-29T08:56:21.861Z,14.50
2023-04-29T08:58:29.252Z,14.20
2023-04-29T09:00:33.576Z,13.70
2023-04-29T09:02:42.358Z,14.00
2023-04-29T09:05:06.455Z,13.50
2023-04-29T09:07:11.243Z,13.90
2023-04-29T09:09:15.304Z,13.90
2023-04-29T09:11:18.587Z,13.90
2023-04-29T09:13:26.324Z,14.10
2023-04-29T09:15:29.226Z,13.50
2023-04-29T09:17:46.126Z,13.60
2023-04-29T09:19:49.031Z,13.70
2023-04-29T09:21:57.118Z,13.80
2023-04-29T09:24:01.080Z,13.60
2023-04-29T09:26:03.852Z,13.90
2023-04-29T09:28:16.926Z,13.60
2023-04-29T09:30:19.836Z,13.00
2023-04-29T09:32:24.621Z,13.60
2023-04-29T09:34:35.583Z,13.70
2023-04-29T09:36:46.690Z,14.00
2023-04-29T09:38:56.541Z,13.80
2023-04-29T09:41:01.173Z,13.70
2023-04-29T09:43:12.701Z,13.80
2023-04-29T09:45:33.833Z,13.50
2023-04-29T09:47:37.132Z,13.90
2023-04-29T09:49:41.981Z,14.00
2023-04-29T09:51:54.562Z,14.10
2023-04-29T09:53:59.088Z,14.50
2023-04-29T09:56:03.614Z,14.50
2023-04-29T09:58:06.489Z,14.10
2023-04-29T10:00:10.273Z,14.50
2023-04-29T10:02:16.508Z,14.20
2023-04-29T10:04:21.729Z,14.10
2023-04-29T10:06:26.454Z,14.60
2023-04-29T10:08:30.373Z,14.70
2023-04-29T10:10:34.708Z,14.70
2023-04-29T10:12:38.658Z,14.50
2023-04-29T10:14:46.519Z,14.40
2023-04-29T10:16:51.058Z,14.20
2023-04-29T10:18:56.352Z,14.30
2023-04-29T10:21:03.037Z,14.80
2023-04-29T10:23:06.340Z,14.60
2023-04-29T10:25:12.023Z,14.70
2023-04-29T10:27:16.851Z,14.90
2023-04-29T10:29:22.696Z,14.70
2023-04-29T10:31:27.712Z,14.80
2023-04-29T10:33:33.432Z,15.00
2023-04-29T10:35:36.295Z,14.50
2023-04-29T10:37:57.130Z,14.60
2023-04-29T10:40:08.348Z,14.60
2023-04-29T10:42:26.987Z,14.10
2023-04-29T10:44:29.709Z,13.90
2023-04-29T10:46:32.545Z,14.10
2023-04-29T10:48:35.396Z,14.10
2023-04-29T10:50:57.086Z,14.20
2023-04-29T10:53:03.228Z,14.00
2023-04-29T10:55:07.345Z,14.00
2023-04-29T10:57:22.926Z,14.10
2023-04-29T10:59:47.243Z,14.20
2023-04-29T11:01:51.255Z,14.70
2023-04-29T11:03:58.586Z,14.70
2023-04-29T11:06:10.055Z,15.00
2023-04-29T11:08:13.365Z,15.50
2023-04-29T11:10:16.179Z,15.70
2023-04-29T11:12:23.068Z,15.40
2023-04-29T11:14:27.696Z,15.70
2023-04-29T11:16:30.628Z,15.70
2023-04-29T11:18:34.661Z,15.80
2023-04-29T11:21:13.995Z,16.10
2023-04-29T11:23:19.462Z,15.80
2023-04-29T11:25:26.560Z,15.60
2023-04-29T11:27:33.457Z,15.60
2023-04-29T11:29:36.236Z,15.20
2023-04-29T11:31:40.053Z,15.50
2023-04-29T11:33:42.844Z,15.50
2023-04-29T11:35:45.655Z,15.50
2023-04-29T11:37:48.647Z,15.70
2023-04-29T11:39:52.195Z,15.70
2023-04-29T11:42:04.592Z,15.80
2023-04-29T11:44:10.071Z,16.00
2023-04-29T11:46:14.221Z,15.90
2023-04-29T11:48:20.372Z,15.50
2023-04-29T11:50:23.468Z,15.50
2023-04-29T11:52:26.222Z,15.60
2023-04-29T11:54:30.116Z,15.90
2023-04-29T11:56:32.972Z,15.80
2023-04-29T11:58:35.767Z,15.70
2023-04-29T12:00:39.928Z,14.90
2023-04-29T12:02:46.234Z,15.50
2023-04-29T12:04:49.807Z,15.30
2023-04-29T12:06:53.354Z,15.40
2023-04-29T12:08:56.092Z,15.50
2023-04-29T12:11:00.154Z,15.50
2023-04-29T12:13:03.456Z,15.50
2023-04-29T12:15:07.456Z,15.50
2023-04-29T12:17:11.907Z,15.10
2023-04-29T12:19:14.901Z,15.80
2023-04-29T12:21:17.842Z,16.00
2023-04-29T12:23:23.123Z,15.50
2023-04-29T12:25:27.620Z,15.50
2023-04-29T12:27:30.877Z,15.70
2023-04-29T12:29:34.066Z,15.80
2023-04-29T12:31:36.983Z,16.20
2023-04-29T12:33:44.282Z,16.20
2023-04-29T12:35:47.080Z,15.50
2023-04-29T12:37:50.934Z,16.00
2023-04-29T12:39:56.101Z,16.10
2023-04-29T12:41:59.768Z,16.00
2023-04-29T12:44:04.183Z,16.30
2023-04-29T12:46:08.597Z,16.00
2023-04-29T12:48:22.104Z,15.90
2023-04-29T12:50:35.181Z,16.10
2023-04-29T12:52:37.925Z,16.30
2023-04-29T12:54:43.419Z,16.40
2023-04-29T12:56:48.554Z,16.40
2023-04-29T12:58:52.248Z,16.40
2023-04-29T13:00:55.232Z,16.20
2023-04-29T13:02:58.155Z,16.00
2023-04-29T13:05:01.662Z,16.00
2023-04-29T13:07:06.392Z,15.30
2023-04-29T13:09:17.945Z,15.80
2023-04-29T13:11:21.748Z,15.70
2023-04-29T13:13:24.535Z,16.00
2023-04-29T13:15:27.831Z,16.40
2023-04-29T13:17:30.661Z,15.60
2023-04-29T13:19:49.517Z,16.20
2023-04-29T13:21:53.968Z,16.20
2023-04-29T13:23:58.073Z,16.20
2023-04-29T13:26:01.183Z,15.80
2023-04-29T13:28:05.457Z,16.30
2023-04-29T13:30:09.644Z,16.10
2023-04-29T13:32:12.561Z,16.30
2023-04-29T13:34:15.723Z,16.40
2023-04-29T13:36:18.533Z,16.10
2023-04-29T13:38:22.899Z,15.90
2023-04-29T13:40:28.235Z,15.90
2023-04-29T13:42:32.639Z,15.60
2023-04-29T13:46:48.674Z,15.40
2023-04-29T13:51:34.290Z,15.10
2023-04-29T13:53:51.078Z,15.30
2023-04-29T13:58:37.836Z,15.70
2023-04-29T14:00:31.764Z,15.80
2023-04-29T14:02:37.402Z,16.00
2023-04-29T14:04:40.531Z,16.20
2023-04-29T14:06:44.684Z,16.20
2023-04-29T14:08:47.493Z,16.20
2023-04-29T14:10:51.613Z,16.10
2023-04-29T14:12:54.357Z,16.20
2023-04-29T14:14:59.485Z,15.90
2023-04-29T14:17:03.720Z,16.20
2023-04-29T14:19:07.106Z,15.80
2023-04-29T14:21:11.032Z,15.70
2023-04-29T14:23:13.762Z,16.10
2023-04-29T14:25:16.717Z,16.00
2023-04-29T14:27:21.642Z,15.60
2023-04-29T14:29:24.566Z,15.80
2023-04-29T14:31:28.913Z,15.70
2023-04-29T14:33:31.907Z,15.70
2023-04-29T14:35:34.647Z,15.30
2023-04-29T14:37:37.433Z,15.20
2023-04-29T14:39:40.206Z,15.30
2023-04-29T14:41:42.957Z,15.40
2023-04-29T14:43:46.982Z,15.50
2023-04-29T14:45:50.114Z,15.60
2023-04-29T14:47:52.924Z,15.80
2023-04-29T14:49:56.393Z,16.00
2023-04-29T14:51:59.234Z,15.70
2023-04-29T14:54:01.972Z,15.70
2023-04-29T14:56:04.907Z,15.40
2023-04-29T14:58:09.377Z,15.50
2023-04-29T15:00:15.468Z,15.90
2023-04-29T15:02:18.218Z,16.30
2023-04-29T15:04:20.990Z,15.70
2023-04-29T15:06:23.766Z,16.00
2023-04-29T15:08:26.668Z,16.00
2023-04-29T15:10:29.562Z,15.80
2023-04-29T15:12:32.259Z,15.70
2023-04-29T15:14:35.546Z,15.60
2023-04-29T15:16:39.639Z,15.80
2023-04-29T15:18:45.510Z,15.70
2023-04-29T15:20:48.544Z,15.40
2023-04-29T15:22:51.298Z,15.60
2023-04-29T15:24:54.020Z,15.90
2023-04-29T15:26:56.767Z,16.10
2023-04-29T15:28:59.553Z,15.80
2023-04-29T15:31:04.671Z,15.90
2023-04-29T15:33:08.744Z,15.60
2023-04-29T15:35:12.649Z,15.90
2023-04-29T15:37:15.375Z,15.90
2023-04-29T15:39:18.243Z,16.00
2023-04-29T15:41:21.662Z,15.90
2023-04-29T15:43:24.558Z,16.00
2023-04-29T15:45:27.474Z,15.90
2023-04-29T15:47:30.298Z,16.20
2023-04-29T15:49:34.400Z,16.10
2023-04-29T15:51:37.152Z,16.20
2023-04-29T15:53:39.901Z,16.30
2023-04-29T15:55:42.662Z,16.20
2023-04-29T15:57:45.628Z,16.30
2023-04-29T15:59:48.427Z,15.80
2023-04-29T16:01:51.381Z,16.10
2023-04-29T16:03:54.408Z,15.90
2023-04-29T16:05:58.641Z,16.10
2023-04-29T16:08:01.450Z,16.00
2023-04-29T16:10:04.606Z,16.10
2023-04-29T16:12:08.508Z,16.10
2023-04-29T16:14:11.259Z,16.00
2023-04-29T16:16:14.048Z,16.10
2023-04-29T16:18:17.524Z,16.00
2023-04-29T16:20:20.661Z,15.70
2023-04-29T16:22:25.396Z,15.70
2023-04-29T16:24:28.128Z,15.80
2023-04-29T16:26:30.935Z,15.80
2023-04-29T16:28:33.692Z,15.80
2023-04-29T16:30:36.714Z,15.90
2023-04-29T16:32:41.490Z,15.70
2023-04-29T16:34:44.351Z,15.50
2023-04-29T16:36:47.066Z,15.40
2023-04-29T16:38:51.370Z,15.20
2023-04-29T16:40:54.652Z,15.40
2023-04-29T16:42:57.839Z,14.90
2023-04-29T16:45:00.626Z,14.80
2023-04-29T16:47:03.607Z,14.80
2023-04-29T16:49:07.068Z,15.10
2023-04-29T16:51:09.799Z,15.10
2023-04-29T16:53:13.478Z,15.00
2023-04-29T16:55:17.691Z,14.70
2023-04-29T16:57:21.322Z,14.80
2023-04-29T16:59:24.184Z,14.80
2023-04-29T17:01:27.052Z,15.10
2023-04-29T17:03:30.876Z,15.30
2023-04-29T17:05:33.880Z,15.10
2023-04-29T17:07:36.744Z,15.40
2023-04-29T17:09:39.522Z,15.40
2023-04-29T17:11:43.604Z,15.60
2023-04-29T17:13:46.379Z,14.70
2023-04-29T17:15:49.169Z,15.20
2023-04-29T17:17:52.659Z,15.00
2023-04-29T17:19:55.950Z,15.00
2023-04-29T17:21:58.880Z,14.70
2023-04-29T17:24:01.594Z,14.80
2023-04-29T17:26:05.730Z,14.80
2023-04-29T17:28:09.799Z,14.70
2023-04-29T17:30:13.675Z,15.00
2023-04-29T17:32:17.530Z,15.00
2023-04-29T17:34:23.783Z,15.00
2023-04-29T17:36:26.840Z,15.00
2023-04-29T17:38:29.661Z,14.50
2023-04-29T17:40:32.425Z,14.50
2023-04-29T17:42:35.191Z,14.70
2023-04-29T17:44:39.241Z,14.80
2023-04-29T17:46:42.610Z,14.80
2023-04-29T17:48:45.315Z,15.10
2023-04-29T17:50:48.390Z,14.60
2023-04-29T17:52:51.126Z,15.00
2023-04-29T17:54:54.447Z,14.70
2023-04-29T17:56:57.289Z,15.00
2023-04-29T17:59:00.038Z,15.10
2023-04-29T18:01:06.357Z,15.20
2023-04-29T18:03:09.262Z,15.30
2023-04-29T18:05:12.078Z,15.50
2023-04-29T18:07:14.902Z,15.30
2023-04-29T18:09:17.914Z,15.20
2023-04-29T18:11:21.114Z,15.00
2023-04-29T18:13:26.550Z,15.20
2023-04-29T18:15:30.353Z,15.40
2023-04-29T18:17:34.736Z,15.30
2023-04-29T18:19:37.491Z,14.90
2023-04-29T18:21:40.297Z,15.00
2023-04-29T18:23:43.016Z,15.00
2023-04-29T18:25:45.836Z,14.90
2023-04-29T18:27:48.705Z,14.80
2023-04-29T18:29:51.705Z,14.80
2023-04-29T18:31:54.720Z,14.80
2023-04-29T18:33:58.904Z,14.70
2023-04-29T18:36:01.895Z,14.70
2023-04-29T18:38:04.807Z,14.70
2023-04-29T18:40:08.929Z,14.80
2023-04-29T18:42:12.017Z,14.90
2023-04-29T18:44:14.775Z,14.80
2023-04-29T18:46:17.606Z,14.80
2023-04-29T18:48:20.522Z,14.90
2023-04-29T18:50:24.616Z,14.80
2023-04-29T18:52:27.434Z,14.80
2023-04-29T18:54:30.209Z,14.80
2023-04-29T18:56:32.957Z,14.90
2023-04-29T18:58:36.022Z,14.90
2023-04-29T19:00:38.798Z,14.70
2023-04-29T19:02:41.620Z,14.80
2023-04-29T19:04:44.991Z,14.80
2023-04-29T19:06:49.074Z,14.80
2023-04-29T19:08:52.440Z,14.90
2023-04-29T19:10:55.205Z,14.80
2023-04-29T19:12:57.956Z,14.70
2023-04-29T19:15:00.719Z,14.80
2023-04-29T19:17:03.450Z,14.80
2023-04-29T19:19:06.652Z,14.80
2023-04-29T19:21:10.146Z,14.80
2023-04-29T19:23:14.225Z,14.70
2023-04-29T19:25:16.954Z,14.70
2023-04-29T19:27:19.721Z,14.40
2023-04-29T19:29:22.665Z,14.20
2023-04-29T19:31:25.504Z,14.00
2023-04-29T19:33:28.300Z,14.10
2023-04-29T19:35:31.124Z,14.10
2023-04-29T19:37:33.944Z,14.20
2023-04-29T19:39:37.996Z,14.20
2023-04-29T19:41:40.712Z,14.10
2023-04-29T19:43:43.417Z,13.80
2023-04-29T19:45:46.188Z,13.60
2023-04-29T19:47:49.973Z,13.50
2023-04-29T19:49:53.098Z,13.30
2023-04-29T19:51:56.054Z,13.20
2023-04-29T19:54:01.509Z,13.20
2023-04-29T19:56:05.932Z,13.00
2023-04-29T19:58:09.082Z,12.70
2023-04-29T20:00:14.630Z,12.70
2023-04-29T20:02:17.491Z,12.70
2023-04-29T20:04:20.969Z,12.70
2023-04-29T20:06:23.862Z,12.70
2023-04-29T20:08:26.698Z,12.80
2023-04-29T20:10:30.186Z,12.70
2023-04-29T20:12:35.624Z,12.90
2023-04-29T20:14:38.420Z,12.70
2023-04-29T20:16:41.542Z,12.60
2023-04-29T20:18:44.272Z,12.70
2023-04-29T20:20:47.189Z,12.50
2023-04-29T20:22:49.941Z,12.40
2023-04-29T20:24:52.719Z,12.40
2023-04-29T20:26:55.475Z,12.60
2023-04-29T20:28:59.845Z,12.80
2023-04-29T20:31:02.618Z,12.80
2023-04-29T20:33:07.018Z,12.90
2023-04-29T20:35:11.577Z,12.80
2023-04-29T20:37:14.556Z,12.80
2023-04-29T20:39:18.120Z,12.70
2023-04-29T20:41:20.964Z,12.70
2023-04-29T20:43:23.700Z,12.70
2023-04-29T20:45:28.002Z,12.60
2023-04-29T20:47:30.754Z,12.60
2023-04-29T20:49:33.685Z,12.50
2023-04-29T20:51:36.505Z,12.40
2023-04-29T20:53:39.259Z,12.40
2023-04-29T20:55:42.091Z,12.20
2023-04-29T20:57:44.822Z,12.30
2023-04-29T20:59:47.646Z,12.40
2023-04-29T21:01:51.965Z,12.50
2023-04-29T21:03:54.724Z,12.50
2023-04-29T21:05:57.724Z,12.50
2023-04-29T21:08:00.625Z,12.50
2023-04-29T21:10:03.424Z,12.30
2023-04-29T21:12:06.475Z,12.20
2023-04-29T21:14:09.278Z,12.00
2023-04-29T21:16:12.110Z,12.10
2023-04-29T21:18:16.322Z,12.10
2023-04-29T21:20:19.105Z,12.20
2023-04-29T21:22:21.831Z,12.20
2023-04-29T21:24:24.978Z,12.20
2023-04-29T21:26:27.760Z,12.20
2023-04-29T21:28:30.613Z,12.30
2023-04-29T21:30:33.365Z,12.30
2023-04-29T21:32:36.130Z,12.30
2023-04-29T21:34:40.194Z,12.30
2023-04-29T21:36:42.976Z,12.30
2023-04-29T21:38:45.777Z,12.20
2023-04-29T21:40:49.301Z,12.20
2023-04-29T21:42:52.616Z,12.10
2023-04-29T21:44:56.332Z,12.00
2023-04-29T21:47:00.749Z,12.00
2023-04-29T21:49:04.402Z,12.00
2023-04-29T21:51:08.570Z,11.90
2023-04-29T21:53:12.715Z,11.80
2023-04-29T21:55:17.256Z,11.50
2023-04-29T21:57:26.324Z,11.30
2023-04-29T21:59:35.174Z,11.20
2023-04-29T22:01:48.480Z,11.20
2023-04-29T22:03:51.663Z,11.10
2023-04-29T22:05:54.801Z,11.20
2023-04-29T22:08:00.647Z,11.10
2023-04-29T22:10:03.501Z,11.20
2023-04-29T22:12:06.487Z,11.00
2023-04-29T22:14:09.303Z,11.00
2023-04-29T22:16:12.312Z,11.10
2023-04-29T22:18:15.296Z,11.10
2023-04-29T22:20:18.076Z,11.20
2023-04-29T22:22:20.839Z,11.20
2023-04-29T22:24:24.946Z,11.20
2023-04-29T22:26:27.767Z,11.20
2023-04-29T22:28:30.566Z,11.00
2023-04-29T22:30:33.555Z,11.00
2023-04-29T22:32:36.969Z,11.00
2023-04-29T22:34:40.030Z,10.90
2023-04-29T22:36:42.751Z,11.00
2023-04-29T22:38:45.793Z,11.00
2023-04-29T22:40:53.614Z,11.10
2023-04-29T22:42:56.354Z,10.90
2023-04-29T22:44:59.100Z,10.90
2023-04-29T22:47:02.055Z,11.00
2023-04-29T22:49:04.859Z,10.80
2023-04-29T22:51:07.601Z,10.90
2023-04-29T22:53:10.369Z,10.80
2023-04-29T22:55:13.121Z,10.80
2023-04-29T22:57:17.230Z,10.90
2023-04-29T22:59:19.983Z,10.70
2023-04-29T23:01:22.881Z,10.80
2023-04-29T23:03:26.351Z,10.90
2023-04-29T23:05:29.992Z,10.80
2023-04-29T23:07:32.745Z,11.00
2023-04-29T23:09:35.494Z,10.90
2023-04-29T23:11:38.248Z,11.00
2023-04-29T23:13:42.404Z,11.00
2023-04-29T23:15:45.628Z,11.00
2023-04-29T23:17:48.519Z,10.70
2023-04-29T23:19:51.530Z,10.70
2023-04-29T23:21:54.325Z,10.60
2023-04-29T23:23:57.113Z,10.50
2023-04-29T23:25:59.936Z,10.70
2023-04-29T23:28:02.707Z,10.70
2023-04-29T23:30:08.797Z,10.50
2023-04-29T23:32:11.574Z,10.40
2023-04-29T23:34:16.443Z,10.30
2023-04-29T23:36:19.158Z,10.40
2023-04-29T23:38:21.922Z,10.60
2023-04-29T23:40:24.718Z,10.50
2023-04-29T23:42:27.790Z,10.60
2023-04-29T23:44:30.646Z,10.20
2023-04-29T23:46:34.746Z,10.30
2023-04-29T23:48:37.528Z,10.40
2023-04-29T23:50:40.293Z,10.30
2023-04-29T23:52:43.073Z,9.90
2023-04-29T23:54:45.805Z,10.20
2023-04-29T23:56:48.511Z,10.00
2023-04-29T23:58:51.250Z,9.70
